sensor_id;sensor_type;location;lat;lon;timestamp;P1;durP1;ratioP1;P2;durP2;ratioP2
16270;SDS011;8243;49.048;8.396;2023-04-21T00:02:20;28.27;;;22.93;;
16270;SDS011;8243;49.048;8.396;2023-04-21T00:04:46;27.30;;;20.57;;
16270;SDS011;8243;49.048;8.396;2023-04-21T00:07:11;28.50;;;22.33;;
16270;SDS011;8243;49.048;8.396;2023-04-21T00:09:38;27.30;;;21.47;;
16270;SDS011;8243;49.048;8.396;2023-04-21T00:12:04;30.10;;;23.53;;
16270;SDS011;8243;49.048;8.396;2023-04-21T00:14:30;29.33;;;23.03;;
16270;SDS011;8243;49.048;8.396;2023-04-21T00:16:55;27.63;;;20.77;;
16270;SDS011;8243;49.048;8.396;2023-04-21T00:19:23;32.43;;;23.73;;
16270;SDS011;8243;49.048;8.396;2023-04-21T00:21:48;31.50;;;23.87;;
16270;SDS011;8243;49.048;8.396;2023-04-21T00:24:14;29.63;;;22.07;;
16270;SDS011;8243;49.048;8.396;2023-04-21T00:26:40;29.33;;;23.00;;
16270;SDS011;8243;49.048;8.396;2023-04-21T00:29:05;29.37;;;23.07;;
16270;SDS011;8243;49.048;8.396;2023-04-21T00:31:31;30.20;;;23.07;;
16270;SDS011;8243;49.048;8.396;2023-04-21T00:33:56;30.70;;;22.03;;
16270;SDS011;8243;49.048;8.396;2023-04-21T00:36:22;33.23;;;23.47;;
16270;SDS011;8243;49.048;8.396;2023-04-21T00:38:48;29.87;;;22.70;;
16270;SDS011;8243;49.048;8.396;2023-04-21T00:41:14;32.10;;;24.80;;
16270;SDS011;8243;49.048;8.396;2023-04-21T00:43:59;33.13;;;25.03;;
16270;SDS011;8243;49.048;8.396;2023-04-21T00:46:26;30.57;;;22.87;;
16270;SDS011;8243;49.048;8.396;2023-04-21T00:48:52;32.20;;;23.70;;
16270;SDS011;8243;49.048;8.396;2023-04-21T00:51:18;40.30;;;27.17;;
16270;SDS011;8243;49.048;8.396;2023-04-21T00:53:43;39.30;;;28.13;;
16270;SDS011;8243;49.048;8.396;2023-04-21T00:56:10;40.63;;;28.43;;
16270;SDS011;8243;49.048;8.396;2023-04-21T00:58:35;39.53;;;30.23;;
16270;SDS011;8243;49.048;8.396;2023-04-21T01:01:02;38.83;;;29.67;;
16270;SDS011;8243;49.048;8.396;2023-04-21T01:03:29;40.90;;;29.33;;
16270;SDS011;8243;49.048;8.396;2023-04-21T01:05:55;46.40;;;30.23;;
16270;SDS011;8243;49.048;8.396;2023-04-21T01:08:20;37.50;;;28.47;;
16270;SDS011;8243;49.048;8.396;2023-04-21T01:10:46;40.20;;;29.13;;
16270;SDS011;8243;49.048;8.396;2023-04-21T01:13:12;40.30;;;29.00;;
16270;SDS011;8243;49.048;8.396;2023-04-21T01:15:38;44.03;;;29.07;;
16270;SDS011;8243;49.048;8.396;2023-04-21T01:18:03;39.90;;;28.70;;
16270;SDS011;8243;49.048;8.396;2023-04-21T01:20:29;39.10;;;28.50;;
16270;SDS011;8243;49.048;8.396;2023-04-21T01:22:55;39.87;;;29.00;;
16270;SDS011;8243;49.048;8.396;2023-04-21T01:25:20;39.23;;;28.70;;
16270;SDS011;8243;49.048;8.396;2023-04-21T01:27:49;38.23;;;28.07;;
16270;SDS011;8243;49.048;8.396;2023-04-21T01:30:16;36.33;;;26.57;;
16270;SDS011;8243;49.048;8.396;2023-04-21T01:32:41;40.23;;;28.17;;
16270;SDS011;8243;49.048;8.396;2023-04-21T01:35:07;38.23;;;28.40;;
16270;SDS011;8243;49.048;8.396;2023-04-21T01:37:33;41.33;;;29.17;;
16270;SDS011;8243;49.048;8.396;2023-04-21T01:40:01;44.87;;;31.60;;
16270;SDS011;8243;49.048;8.396;2023-04-21T01:42:31;49.80;;;32.70;;
16270;SDS011;8243;49.048;8.396;2023-04-21T01:44:58;49.80;;;34.33;;
16270;SDS011;8243;49.048;8.396;2023-04-21T01:47:24;47.53;;;33.30;;
16270;SDS011;8243;49.048;8.396;2023-04-21T01:49:50;45.70;;;32.37;;
16270;SDS011;8243;49.048;8.396;2023-04-21T01:52:16;42.07;;;29.93;;
16270;SDS011;8243;49.048;8.396;2023-04-21T01:54:41;40.70;;;28.63;;
16270;SDS011;8243;49.048;8.396;2023-04-21T01:57:07;43.20;;;30.13;;
16270;SDS011;8243;49.048;8.396;2023-04-21T01:59:32;41.50;;;28.67;;
16270;SDS011;8243;49.048;8.396;2023-04-21T02:01:58;42.70;;;29.53;;
16270;SDS011;8243;49.048;8.396;2023-04-21T02:04:24;42.07;;;29.67;;
16270;SDS011;8243;49.048;8.396;2023-04-21T02:06:49;42.30;;;31.43;;
16270;SDS011;8243;49.048;8.396;2023-04-21T02:09:15;40.47;;;30.30;;
16270;SDS011;8243;49.048;8.396;2023-04-21T02:11:40;40.47;;;29.50;;
16270;SDS011;8243;49.048;8.396;2023-04-21T02:14:06;42.23;;;28.97;;
16270;SDS011;8243;49.048;8.396;2023-04-21T02:16:32;36.33;;;26.83;;
16270;SDS011;8243;49.048;8.396;2023-04-21T02:18:57;37.43;;;26.20;;
16270;SDS011;8243;49.048;8.396;2023-04-21T02:21:24;35.60;;;26.10;;
16270;SDS011;8243;49.048;8.396;2023-04-21T02:23:50;31.77;;;23.13;;
16270;SDS011;8243;49.048;8.396;2023-04-21T02:26:16;36.27;;;25.50;;
16270;SDS011;8243;49.048;8.396;2023-04-21T02:28:42;39.13;;;26.43;;
16270;SDS011;8243;49.048;8.396;2023-04-21T02:31:08;39.10;;;27.33;;
16270;SDS011;8243;49.048;8.396;2023-04-21T02:33:33;41.03;;;27.00;;
16270;SDS011;8243;49.048;8.396;2023-04-21T02:35:59;34.83;;;26.87;;
16270;SDS011;8243;49.048;8.396;2023-04-21T02:38:24;39.87;;;26.03;;
16270;SDS011;8243;49.048;8.396;2023-04-21T02:40:50;36.47;;;24.70;;
16270;SDS011;8243;49.048;8.396;2023-04-21T02:43:16;39.13;;;27.10;;
16270;SDS011;8243;49.048;8.396;2023-04-21T02:45:41;39.37;;;26.83;;
16270;SDS011;8243;49.048;8.396;2023-04-21T02:48:07;37.57;;;26.50;;
16270;SDS011;8243;49.048;8.396;2023-04-21T02:50:32;39.47;;;27.17;;
16270;SDS011;8243;49.048;8.396;2023-04-21T02:52:58;37.93;;;25.10;;
16270;SDS011;8243;49.048;8.396;2023-04-21T02:55:23;38.97;;;25.97;;
16270;SDS011;8243;49.048;8.396;2023-04-21T02:57:49;35.03;;;25.53;;
16270;SDS011;8243;49.048;8.396;2023-04-21T03:00:15;40.07;;;26.83;;
16270;SDS011;8243;49.048;8.396;2023-04-21T03:02:41;38.97;;;25.03;;
16270;SDS011;8243;49.048;8.396;2023-04-21T03:05:06;35.73;;;24.50;;
16270;SDS011;8243;49.048;8.396;2023-04-21T03:07:32;36.20;;;24.07;;
16270;SDS011;8243;49.048;8.396;2023-04-21T03:09:58;32.67;;;23.43;;
16270;SDS011;8243;49.048;8.396;2023-04-21T03:12:24;36.53;;;25.20;;
16270;SDS011;8243;49.048;8.396;2023-04-21T03:14:49;32.27;;;23.30;;
16270;SDS011;8243;49.048;8.396;2023-04-21T03:17:15;32.23;;;23.43;;
16270;SDS011;8243;49.048;8.396;2023-04-21T03:19:40;32.93;;;22.87;;
16270;SDS011;8243;49.048;8.396;2023-04-21T03:22:06;35.63;;;24.63;;
16270;SDS011;8243;49.048;8.396;2023-04-21T03:24:31;41.93;;;27.93;;
16270;SDS011;8243;49.048;8.396;2023-04-21T03:26:57;36.70;;;24.03;;
16270;SDS011;8243;49.048;8.396;2023-04-21T03:29:23;38.23;;;25.40;;
16270;SDS011;8243;49.048;8.396;2023-04-21T03:31:48;36.03;;;24.60;;
16270;SDS011;8243;49.048;8.396;2023-04-21T03:34:14;35.70;;;24.27;;
16270;SDS011;8243;49.048;8.396;2023-04-21T03:36:40;40.63;;;26.97;;
16270;SDS011;8243;49.048;8.396;2023-04-21T03:39:06;40.30;;;26.63;;
16270;SDS011;8243;49.048;8.396;2023-04-21T03:41:32;38.47;;;26.47;;
16270;SDS011;8243;49.048;8.396;2023-04-21T03:43:58;37.43;;;25.63;;
16270;SDS011;8243;49.048;8.396;2023-04-21T03:46:23;39.63;;;26.03;;
16270;SDS011;8243;49.048;8.396;2023-04-21T03:48:49;39.10;;;26.10;;
16270;SDS011;8243;49.048;8.396;2023-04-21T03:51:15;37.47;;;26.30;;
16270;SDS011;8243;49.048;8.396;2023-04-21T03:53:40;38.73;;;26.77;;
16270;SDS011;8243;49.048;8.396;2023-04-21T03:56:06;40.43;;;26.23;;
16270;SDS011;8243;49.048;8.396;2023-04-21T03:58:32;39.43;;;25.57;;
16270;SDS011;8243;49.048;8.396;2023-04-21T04:00:58;36.37;;;25.63;;
16270;SDS011;8243;49.048;8.396;2023-04-21T04:03:24;38.23;;;25.23;;
16270;SDS011;8243;49.048;8.396;2023-04-21T04:05:49;44.83;;;28.87;;
16270;SDS011;8243;49.048;8.396;2023-04-21T04:08:15;54.27;;;35.07;;
16270;SDS011;8243;49.048;8.396;2023-04-21T04:10:40;48.57;;;30.60;;
16270;SDS011;8243;49.048;8.396;2023-04-21T04:13:06;47.70;;;28.77;;
16270;SDS011;8243;49.048;8.396;2023-04-21T04:15:31;77.77;;;38.40;;
16270;SDS011;8243;49.048;8.396;2023-04-21T04:17:57;69.50;;;36.73;;
16270;SDS011;8243;49.048;8.396;2023-04-21T04:20:23;59.83;;;38.73;;
16270;SDS011;8243;49.048;8.396;2023-04-21T04:22:48;42.83;;;27.97;;
16270;SDS011;8243;49.048;8.396;2023-04-21T04:25:14;44.27;;;30.03;;
16270;SDS011;8243;49.048;8.396;2023-04-21T04:27:40;47.70;;;31.00;;
16270;SDS011;8243;49.048;8.396;2023-04-21T04:30:08;37.73;;;24.70;;
16270;SDS011;8243;49.048;8.396;2023-04-21T04:32:34;36.70;;;23.33;;
16270;SDS011;8243;49.048;8.396;2023-04-21T04:35:03;38.40;;;26.00;;
16270;SDS011;8243;49.048;8.396;2023-04-21T04:37:29;42.20;;;26.00;;
16270;SDS011;8243;49.048;8.396;2023-04-21T04:39:55;41.23;;;26.73;;
16270;SDS011;8243;49.048;8.396;2023-04-21T04:42:21;40.37;;;27.03;;
16270;SDS011;8243;49.048;8.396;2023-04-21T04:44:51;38.47;;;25.00;;
16270;SDS011;8243;49.048;8.396;2023-04-21T04:47:17;40.00;;;26.17;;
16270;SDS011;8243;49.048;8.396;2023-04-21T04:49:43;36.97;;;25.50;;
16270;SDS011;8243;49.048;8.396;2023-04-21T04:52:08;37.67;;;25.13;;
16270;SDS011;8243;49.048;8.396;2023-04-21T04:54:34;37.60;;;23.10;;
16270;SDS011;8243;49.048;8.396;2023-04-21T04:57:00;39.20;;;24.10;;
16270;SDS011;8243;49.048;8.396;2023-04-21T04:59:26;33.33;;;21.97;;
16270;SDS011;8243;49.048;8.396;2023-04-21T05:01:52;37.13;;;23.30;;
16270;SDS011;8243;49.048;8.396;2023-04-21T05:04:17;34.97;;;22.30;;
16270;SDS011;8243;49.048;8.396;2023-04-21T05:06:43;35.83;;;23.67;;
16270;SDS011;8243;49.048;8.396;2023-04-21T05:09:09;33.47;;;23.40;;
16270;SDS011;8243;49.048;8.396;2023-04-21T05:11:34;36.90;;;23.77;;
16270;SDS011;8243;49.048;8.396;2023-04-21T05:14:00;33.40;;;22.43;;
16270;SDS011;8243;49.048;8.396;2023-04-21T05:16:26;37.80;;;24.07;;
16270;SDS011;8243;49.048;8.396;2023-04-21T05:18:51;36.77;;;23.40;;
16270;SDS011;8243;49.048;8.396;2023-04-21T05:21:23;33.17;;;22.23;;
16270;SDS011;8243;49.048;8.396;2023-04-21T05:23:55;34.77;;;23.67;;
16270;SDS011;8243;49.048;8.396;2023-04-21T05:26:21;34.90;;;23.23;;
16270;SDS011;8243;49.048;8.396;2023-04-21T05:28:48;36.00;;;24.43;;
16270;SDS011;8243;49.048;8.396;2023-04-21T05:31:13;39.50;;;26.20;;
16270;SDS011;8243;49.048;8.396;2023-04-21T05:33:39;33.47;;;23.97;;
16270;SDS011;8243;49.048;8.396;2023-04-21T05:36:08;39.83;;;28.17;;
16270;SDS011;8243;49.048;8.396;2023-04-21T05:38:34;37.03;;;26.20;;
16270;SDS011;8243;49.048;8.396;2023-04-21T05:41:00;36.03;;;25.07;;
16270;SDS011;8243;49.048;8.396;2023-04-21T05:43:26;34.60;;;25.93;;
16270;SDS011;8243;49.048;8.396;2023-04-21T05:45:51;33.63;;;24.97;;
16270;SDS011;8243;49.048;8.396;2023-04-21T05:48:17;34.50;;;24.17;;
16270;SDS011;8243;49.048;8.396;2023-04-21T05:50:43;36.10;;;24.63;;
16270;SDS011;8243;49.048;8.396;2023-04-21T05:53:14;37.17;;;25.70;;
16270;SDS011;8243;49.048;8.396;2023-04-21T05:55:42;37.20;;;26.37;;
16270;SDS011;8243;49.048;8.396;2023-04-21T05:58:08;35.90;;;25.30;;
16270;SDS011;8243;49.048;8.396;2023-04-21T06:00:33;34.73;;;26.30;;
16270;SDS011;8243;49.048;8.396;2023-04-21T06:02:59;36.03;;;26.20;;
16270;SDS011;8243;49.048;8.396;2023-04-21T06:05:25;35.87;;;25.50;;
16270;SDS011;8243;49.048;8.396;2023-04-21T06:07:50;35.93;;;25.53;;
16270;SDS011;8243;49.048;8.396;2023-04-21T06:10:16;33.87;;;25.13;;
16270;SDS011;8243;49.048;8.396;2023-04-21T06:12:42;34.97;;;26.20;;
16270;SDS011;8243;49.048;8.396;2023-04-21T06:15:08;34.07;;;26.03;;
16270;SDS011;8243;49.048;8.396;2023-04-21T06:17:33;30.37;;;24.70;;
16270;SDS011;8243;49.048;8.396;2023-04-21T06:19:59;31.27;;;23.70;;
16270;SDS011;8243;49.048;8.396;2023-04-21T06:22:25;31.97;;;22.87;;
16270;SDS011;8243;49.048;8.396;2023-04-21T06:24:51;29.67;;;23.13;;
16270;SDS011;8243;49.048;8.396;2023-04-21T06:27:17;30.43;;;23.67;;
16270;SDS011;8243;49.048;8.396;2023-04-21T06:29:42;33.40;;;24.67;;
16270;SDS011;8243;49.048;8.396;2023-04-21T06:32:08;34.13;;;25.07;;
16270;SDS011;8243;49.048;8.396;2023-04-21T06:34:34;31.90;;;24.30;;
16270;SDS011;8243;49.048;8.396;2023-04-21T06:37:00;66.50;;;27.67;;
16270;SDS011;8243;49.048;8.396;2023-04-21T06:39:58;679.53;;;66.23;;
16270;SDS011;8243;49.048;8.396;2023-04-21T06:42:24;30.93;;;24.43;;
16270;SDS011;8243;49.048;8.396;2023-04-21T06:44:49;24.27;;;21.00;;
16270;SDS011;8243;49.048;8.396;2023-04-21T06:47:15;20.67;;;17.43;;
16270;SDS011;8243;49.048;8.396;2023-04-21T06:49:41;17.37;;;15.43;;
16270;SDS011;8243;49.048;8.396;2023-04-21T06:52:06;17.60;;;15.03;;
16270;SDS011;8243;49.048;8.396;2023-04-21T06:54:32;18.03;;;15.60;;
16270;SDS011;8243;49.048;8.396;2023-04-21T06:56:58;16.83;;;13.87;;
16270;SDS011;8243;49.048;8.396;2023-04-21T06:59:23;16.80;;;15.00;;
16270;SDS011;8243;49.048;8.396;2023-04-21T07:01:49;15.50;;;13.90;;
16270;SDS011;8243;49.048;8.396;2023-04-21T07:04:16;15.63;;;13.03;;
16270;SDS011;8243;49.048;8.396;2023-04-21T07:06:42;15.27;;;13.20;;
16270;SDS011;8243;49.048;8.396;2023-04-21T07:09:08;14.27;;;12.80;;
16270;SDS011;8243;49.048;8.396;2023-04-21T07:11:34;14.07;;;12.63;;
16270;SDS011;8243;49.048;8.396;2023-04-21T07:13:59;15.90;;;14.30;;
16270;SDS011;8243;49.048;8.396;2023-04-21T07:16:26;15.33;;;12.40;;
16270;SDS011;8243;49.048;8.396;2023-04-21T07:18:52;14.57;;;12.60;;
16270;SDS011;8243;49.048;8.396;2023-04-21T07:21:17;13.83;;;12.43;;
16270;SDS011;8243;49.048;8.396;2023-04-21T07:23:43;13.47;;;12.13;;
16270;SDS011;8243;49.048;8.396;2023-04-21T07:26:09;13.10;;;11.77;;
16270;SDS011;8243;49.048;8.396;2023-04-21T07:28:36;13.93;;;12.53;;
16270;SDS011;8243;49.048;8.396;2023-04-21T07:31:03;13.87;;;12.00;;
16270;SDS011;8243;49.048;8.396;2023-04-21T07:33:28;11.50;;;10.30;;
16270;SDS011;8243;49.048;8.396;2023-04-21T07:35:54;9.77;;;8.87;;
16270;SDS011;8243;49.048;8.396;2023-04-21T07:38:20;9.37;;;7.93;;
16270;SDS011;8243;49.048;8.396;2023-04-21T07:40:45;7.23;;;6.50;;
16270;SDS011;8243;49.048;8.396;2023-04-21T07:43:11;7.43;;;6.47;;
16270;SDS011;8243;49.048;8.396;2023-04-21T07:45:36;6.73;;;6.13;;
16270;SDS011;8243;49.048;8.396;2023-04-21T07:48:02;6.50;;;5.90;;
16270;SDS011;8243;49.048;8.396;2023-04-21T07:50:30;5.63;;;5.13;;
16270;SDS011;8243;49.048;8.396;2023-04-21T07:52:55;5.77;;;5.17;;
16270;SDS011;8243;49.048;8.396;2023-04-21T07:55:21;5.40;;;4.90;;
16270;SDS011;8243;49.048;8.396;2023-04-21T07:57:46;4.93;;;4.53;;
16270;SDS011;8243;49.048;8.396;2023-04-21T08:00:12;5.27;;;4.77;;
16270;SDS011;8243;49.048;8.396;2023-04-21T08:02:39;5.47;;;5.00;;
16270;SDS011;8243;49.048;8.396;2023-04-21T08:05:04;4.20;;;3.80;;
16270;SDS011;8243;49.048;8.396;2023-04-21T08:07:30;6.37;;;5.17;;
16270;SDS011;8243;49.048;8.396;2023-04-21T08:09:56;6.40;;;5.83;;
16270;SDS011;8243;49.048;8.396;2023-04-21T08:12:21;6.50;;;5.90;;
16270;SDS011;8243;49.048;8.396;2023-04-21T08:14:47;6.30;;;5.70;;
16270;SDS011;8243;49.048;8.396;2023-04-21T08:17:12;6.80;;;6.20;;
16270;SDS011;8243;49.048;8.396;2023-04-21T08:19:38;6.63;;;6.03;;
16270;SDS011;8243;49.048;8.396;2023-04-21T08:22:04;6.07;;;5.57;;
16270;SDS011;8243;49.048;8.396;2023-04-21T08:24:29;5.90;;;5.30;;
16270;SDS011;8243;49.048;8.396;2023-04-21T08:26:55;6.10;;;5.47;;
16270;SDS011;8243;49.048;8.396;2023-04-21T08:29:21;4.90;;;4.50;;
16270;SDS011;8243;49.048;8.396;2023-04-21T08:31:47;5.40;;;4.90;;
16270;SDS011;8243;49.048;8.396;2023-04-21T08:34:13;5.03;;;4.60;;
16270;SDS011;8243;49.048;8.396;2023-04-21T08:36:38;4.90;;;4.50;;
16270;SDS011;8243;49.048;8.396;2023-04-21T08:39:05;5.20;;;4.70;;
16270;SDS011;8243;49.048;8.396;2023-04-21T08:41:31;5.17;;;4.40;;
16270;SDS011;8243;49.048;8.396;2023-04-21T08:43:56;4.73;;;4.33;;
16270;SDS011;8243;49.048;8.396;2023-04-21T08:46:22;4.40;;;4.00;;
16270;SDS011;8243;49.048;8.396;2023-04-21T08:48:48;6.00;;;5.50;;
16270;SDS011;8243;49.048;8.396;2023-04-21T08:51:15;5.30;;;4.80;;
16270;SDS011;8243;49.048;8.396;2023-04-21T08:53:45;4.63;;;4.23;;
16270;SDS011;8243;49.048;8.396;2023-04-21T08:56:11;3.60;;;2.77;;
16270;SDS011;8243;49.048;8.396;2023-04-21T08:58:36;3.40;;;3.10;;
16270;SDS011;8243;49.048;8.396;2023-04-21T09:01:02;3.40;;;3.10;;
16270;SDS011;8243;49.048;8.396;2023-04-21T09:03:28;3.43;;;3.13;;
16270;SDS011;8243;49.048;8.396;2023-04-21T09:05:58;3.77;;;2.70;;
16270;SDS011;8243;49.048;8.396;2023-04-21T09:08:25;3.60;;;3.30;;
16270;SDS011;8243;49.048;8.396;2023-04-21T09:10:53;4.37;;;3.70;;
16270;SDS011;8243;49.048;8.396;2023-04-21T09:13:19;5.17;;;3.93;;
16270;SDS011;8243;49.048;8.396;2023-04-21T09:15:48;4.70;;;4.30;;
16270;SDS011;8243;49.048;8.396;2023-04-21T09:18:16;3.90;;;3.60;;
16270;SDS011;8243;49.048;8.396;2023-04-21T09:20:44;4.60;;;4.20;;
16270;SDS011;8243;49.048;8.396;2023-04-21T09:23:12;4.80;;;4.20;;
16270;SDS011;8243;49.048;8.396;2023-04-21T09:25:40;4.70;;;4.30;;
16270;SDS011;8243;49.048;8.396;2023-04-21T09:28:12;7.27;;;4.73;;
16270;SDS011;8243;49.048;8.396;2023-04-21T09:30:39;5.67;;;4.43;;
16270;SDS011;8243;49.048;8.396;2023-04-21T09:33:06;5.10;;;4.60;;
16270;SDS011;8243;49.048;8.396;2023-04-21T09:35:38;4.90;;;4.30;;
16270;SDS011;8243;49.048;8.396;2023-04-21T09:38:08;4.93;;;4.43;;
16270;SDS011;8243;49.048;8.396;2023-04-21T09:40:35;4.80;;;4.33;;
16270;SDS011;8243;49.048;8.396;2023-04-21T09:43:01;5.47;;;4.97;;
16270;SDS011;8243;49.048;8.396;2023-04-21T09:45:27;6.40;;;4.80;;
16270;SDS011;8243;49.048;8.396;2023-04-21T09:47:57;4.57;;;4.07;;
16270;SDS011;8243;49.048;8.396;2023-04-21T09:50:25;6.30;;;5.03;;
16270;SDS011;8243;49.048;8.396;2023-04-21T09:52:54;5.40;;;4.90;;
16270;SDS011;8243;49.048;8.396;2023-04-21T09:55:25;4.37;;;3.97;;
16270;SDS011;8243;49.048;8.396;2023-04-21T09:57:59;4.10;;;3.70;;
16270;SDS011;8243;49.048;8.396;2023-04-21T10:00:26;4.40;;;4.00;;
16270;SDS011;8243;49.048;8.396;2023-04-21T10:02:53;4.37;;;3.97;;
16270;SDS011;8243;49.048;8.396;2023-04-21T10:05:21;4.17;;;3.87;;
16270;SDS011;8243;49.048;8.396;2023-04-21T10:07:47;4.83;;;3.97;;
16270;SDS011;8243;49.048;8.396;2023-04-21T10:10:23;4.07;;;3.77;;
16270;SDS011;8243;49.048;8.396;2023-04-21T10:12:51;3.67;;;3.37;;
16270;SDS011;8243;49.048;8.396;2023-04-21T10:18:10;3.53;;;3.23;;
16270;SDS011;8243;49.048;8.396;2023-04-21T10:20:49;3.70;;;3.40;;
16270;SDS011;8243;49.048;8.396;2023-04-21T10:23:34;3.30;;;3.10;;
16270;SDS011;8243;49.048;8.396;2023-04-21T10:28:47;3.20;;;3.00;;
16270;SDS011;8243;49.048;8.396;2023-04-21T10:36:31;2.70;;;2.30;;
16270;SDS011;8243;49.048;8.396;2023-04-21T10:39:24;4.07;;;3.03;;
16270;SDS011;8243;49.048;8.396;2023-04-21T10:41:53;2.63;;;2.43;;
16270;SDS011;8243;49.048;8.396;2023-04-21T10:44:20;3.20;;;2.90;;
16270;SDS011;8243;49.048;8.396;2023-04-21T10:46:47;3.20;;;2.60;;
16270;SDS011;8243;49.048;8.396;2023-04-21T10:49:23;3.30;;;3.00;;
16270;SDS011;8243;49.048;8.396;2023-04-21T10:57:10;5.70;;;3.37;;
16270;SDS011;8243;49.048;8.396;2023-04-21T10:59:37;3.10;;;2.80;;
16270;SDS011;8243;49.048;8.396;2023-04-21T11:02:04;3.43;;;3.13;;
16270;SDS011;8243;49.048;8.396;2023-04-21T11:04:31;3.13;;;2.70;;
16270;SDS011;8243;49.048;8.396;2023-04-21T11:07:04;3.07;;;2.87;;
16270;SDS011;8243;49.048;8.396;2023-04-21T11:09:37;4.43;;;3.40;;
16270;SDS011;8243;49.048;8.396;2023-04-21T11:12:04;4.37;;;3.87;;
16270;SDS011;8243;49.048;8.396;2023-04-21T11:14:32;4.00;;;3.70;;
16270;SDS011;8243;49.048;8.396;2023-04-21T11:17:02;3.70;;;3.40;;
16270;SDS011;8243;49.048;8.396;2023-04-21T11:19:30;5.70;;;3.37;;
16270;SDS011;8243;49.048;8.396;2023-04-21T11:21:56;4.33;;;3.93;;
16270;SDS011;8243;49.048;8.396;2023-04-21T11:24:22;4.90;;;3.87;;
16270;SDS011;8243;49.048;8.396;2023-04-21T11:26:48;5.57;;;5.07;;
16270;SDS011;8243;49.048;8.396;2023-04-21T11:29:13;4.53;;;4.10;;
16270;SDS011;8243;49.048;8.396;2023-04-21T11:31:43;4.93;;;4.43;;
16270;SDS011;8243;49.048;8.396;2023-04-21T11:34:10;5.00;;;4.43;;
16270;SDS011;8243;49.048;8.396;2023-04-21T11:36:37;5.10;;;4.60;;
16270;SDS011;8243;49.048;8.396;2023-04-21T11:39:14;4.70;;;4.20;;
16270;SDS011;8243;49.048;8.396;2023-04-21T11:41:42;4.73;;;3.97;;
16270;SDS011;8243;49.048;8.396;2023-04-21T11:44:10;4.80;;;4.37;;
16270;SDS011;8243;49.048;8.396;2023-04-21T11:46:36;5.87;;;5.27;;
16270;SDS011;8243;49.048;8.396;2023-04-21T11:49:11;5.00;;;4.50;;
16270;SDS011;8243;49.048;8.396;2023-04-21T11:51:39;4.63;;;4.23;;
16270;SDS011;8243;49.048;8.396;2023-04-21T11:54:06;4.53;;;4.13;;
16270;SDS011;8243;49.048;8.396;2023-04-21T11:56:34;4.30;;;3.90;;
16270;SDS011;8243;49.048;8.396;2023-04-21T11:59:11;5.13;;;4.73;;
16270;SDS011;8243;49.048;8.396;2023-04-21T12:01:47;5.63;;;5.13;;
16270;SDS011;8243;49.048;8.396;2023-04-21T12:04:15;4.73;;;4.33;;
16270;SDS011;8243;49.048;8.396;2023-04-21T12:06:42;5.60;;;5.00;;
16270;SDS011;8243;49.048;8.396;2023-04-21T12:09:15;5.33;;;4.83;;
16270;SDS011;8243;49.048;8.396;2023-04-21T12:11:42;5.73;;;5.23;;
16270;SDS011;8243;49.048;8.396;2023-04-21T12:14:11;5.60;;;5.10;;
16270;SDS011;8243;49.048;8.396;2023-04-21T12:16:38;6.33;;;5.10;;
16270;SDS011;8243;49.048;8.396;2023-04-21T12:19:04;7.23;;;5.33;;
16270;SDS011;8243;49.048;8.396;2023-04-21T12:21:29;5.23;;;4.73;;
16270;SDS011;8243;49.048;8.396;2023-04-21T12:23:55;4.60;;;4.20;;
16270;SDS011;8243;49.048;8.396;2023-04-21T12:26:21;5.20;;;4.80;;
16270;SDS011;8243;49.048;8.396;2023-04-21T12:28:50;5.13;;;4.63;;
16270;SDS011;8243;49.048;8.396;2023-04-21T12:31:16;5.30;;;4.80;;
16270;SDS011;8243;49.048;8.396;2023-04-21T12:33:42;6.17;;;5.57;;
16270;SDS011;8243;49.048;8.396;2023-04-21T12:36:08;6.03;;;5.53;;
16270;SDS011;8243;49.048;8.396;2023-04-21T12:38:34;7.20;;;6.03;;
16270;SDS011;8243;49.048;8.396;2023-04-21T12:40:59;5.93;;;5.27;;
16270;SDS011;8243;49.048;8.396;2023-04-21T12:43:25;7.37;;;6.40;;
16270;SDS011;8243;49.048;8.396;2023-04-21T12:45:50;6.67;;;5.90;;
16270;SDS011;8243;49.048;8.396;2023-04-21T12:48:17;6.67;;;6.07;;
16270;SDS011;8243;49.048;8.396;2023-04-21T12:50:43;6.00;;;5.47;;
16270;SDS011;8243;49.048;8.396;2023-04-21T12:53:10;7.23;;;6.53;;
16270;SDS011;8243;49.048;8.396;2023-04-21T12:55:36;7.70;;;7.00;;
16270;SDS011;8243;49.048;8.396;2023-04-21T12:58:02;6.03;;;5.43;;
16270;SDS011;8243;49.048;8.396;2023-04-21T13:00:28;6.77;;;6.17;;
16270;SDS011;8243;49.048;8.396;2023-04-21T13:02:53;5.53;;;5.03;;
16270;SDS011;8243;49.048;8.396;2023-04-21T13:05:19;7.40;;;6.00;;
16270;SDS011;8243;49.048;8.396;2023-04-21T13:07:45;7.13;;;6.13;;
16270;SDS011;8243;49.048;8.396;2023-04-21T13:10:10;7.27;;;6.57;;
16270;SDS011;8243;49.048;8.396;2023-04-21T13:12:36;6.90;;;6.20;;
16270;SDS011;8243;49.048;8.396;2023-04-21T13:15:02;9.10;;;8.20;;
16270;SDS011;8243;49.048;8.396;2023-04-21T13:17:28;10.00;;;6.87;;
16270;SDS011;8243;49.048;8.396;2023-04-21T13:19:54;6.90;;;6.27;;
16270;SDS011;8243;49.048;8.396;2023-04-21T13:22:20;8.97;;;7.37;;
16270;SDS011;8243;49.048;8.396;2023-04-21T13:24:45;8.07;;;7.27;;
16270;SDS011;8243;49.048;8.396;2023-04-21T13:27:11;9.13;;;8.07;;
16270;SDS011;8243;49.048;8.396;2023-04-21T13:29:36;8.10;;;7.40;;
16270;SDS011;8243;49.048;8.396;2023-04-21T13:32:03;7.63;;;6.80;;
16270;SDS011;8243;49.048;8.396;2023-04-21T13:34:30;7.43;;;6.73;;
16270;SDS011;8243;49.048;8.396;2023-04-21T13:36:57;6.63;;;6.03;;
16270;SDS011;8243;49.048;8.396;2023-04-21T13:39:22;7.17;;;6.00;;
16270;SDS011;8243;49.048;8.396;2023-04-21T13:41:48;6.37;;;5.77;;
16270;SDS011;8243;49.048;8.396;2023-04-21T13:44:13;6.80;;;6.10;;
16270;SDS011;8243;49.048;8.396;2023-04-21T13:46:39;6.80;;;6.17;;
16270;SDS011;8243;49.048;8.396;2023-04-21T13:49:05;5.30;;;4.80;;
16270;SDS011;8243;49.048;8.396;2023-04-21T13:51:31;5.27;;;4.47;;
16270;SDS011;8243;49.048;8.396;2023-04-21T13:53:57;6.30;;;4.97;;
16270;SDS011;8243;49.048;8.396;2023-04-21T13:56:22;7.20;;;6.10;;
16270;SDS011;8243;49.048;8.396;2023-04-21T13:58:48;6.03;;;5.43;;
16270;SDS011;8243;49.048;8.396;2023-04-21T14:01:14;5.67;;;5.17;;
16270;SDS011;8243;49.048;8.396;2023-04-21T14:03:40;6.00;;;5.50;;
16270;SDS011;8243;49.048;8.396;2023-04-21T14:06:05;5.40;;;4.90;;
16270;SDS011;8243;49.048;8.396;2023-04-21T14:08:31;6.73;;;6.00;;
16270;SDS011;8243;49.048;8.396;2023-04-21T14:10:57;5.40;;;4.90;;
16270;SDS011;8243;49.048;8.396;2023-04-21T14:13:24;5.77;;;5.23;;
16270;SDS011;8243;49.048;8.396;2023-04-21T14:15:54;5.40;;;4.90;;
16270;SDS011;8243;49.048;8.396;2023-04-21T14:18:20;5.20;;;4.80;;
16270;SDS011;8243;49.048;8.396;2023-04-21T14:20:46;6.37;;;5.27;;
16270;SDS011;8243;49.048;8.396;2023-04-21T14:23:12;7.17;;;5.60;;
16270;SDS011;8243;49.048;8.396;2023-04-21T14:25:37;7.47;;;5.30;;
16270;SDS011;8243;49.048;8.396;2023-04-21T14:28:03;5.47;;;4.53;;
16270;SDS011;8243;49.048;8.396;2023-04-21T14:30:35;7.77;;;5.27;;
16270;SDS011;8243;49.048;8.396;2023-04-21T14:33:01;4.87;;;4.37;;
16270;SDS011;8243;49.048;8.396;2023-04-21T14:35:28;5.30;;;4.80;;
16270;SDS011;8243;49.048;8.396;2023-04-21T14:37:53;4.77;;;4.37;;
16270;SDS011;8243;49.048;8.396;2023-04-21T14:40:19;5.20;;;4.70;;
16270;SDS011;8243;49.048;8.396;2023-04-21T14:42:45;5.43;;;4.93;;
16270;SDS011;8243;49.048;8.396;2023-04-21T14:45:10;5.27;;;4.77;;
16270;SDS011;8243;49.048;8.396;2023-04-21T14:47:36;5.83;;;5.23;;
16270;SDS011;8243;49.048;8.396;2023-04-21T14:50:03;5.40;;;4.57;;
16270;SDS011;8243;49.048;8.396;2023-04-21T14:52:29;4.53;;;4.13;;
16270;SDS011;8243;49.048;8.396;2023-04-21T14:54:55;4.57;;;4.17;;
16270;SDS011;8243;49.048;8.396;2023-04-21T14:57:21;4.97;;;4.50;;
16270;SDS011;8243;49.048;8.396;2023-04-21T14:59:47;4.40;;;4.00;;
16270;SDS011;8243;49.048;8.396;2023-04-21T15:02:14;5.03;;;4.10;;